Time;durP1;ratioP1;P1;durP2;ratioP2;P2;SDS_P1;SDS_P2;PMS_P1;PMS_P2;Temp;Humidity;BMP_temperature;BMP_pressure;BME280_temperature;BME280_humidity;BME280_pressure;Samples;Min_cycle;Max_cycle;Signal;HPM_P1;HPM_P2
2021/08/20 00:02:08;;;;;;;16.65;14.10;;;18.50;97.10;;;;;;5076960;28;20487;-56
2021/08/20 00:04:34;;;;;;;14.20;12.70;;;18.50;97.20;;;;;;5095908;28;20040;-56
2021/08/20 00:06:59;;;;;;;18.15;13.98;;;18.50;97.20;;;;;;5094499;28;20472;-57
2021/08/20 00:09:28;;;;;;;15.10;12.55;;;18.40;97.30;;;;;;5095464;28;20537;-58
2021/08/20 00:11:54;;;;;;;15.05;13.45;;;18.40;97.30;;;;;;5095215;28;20488;-58
2021/08/20 00:14:20;;;;;;;14.13;12.43;;;18.50;97.20;;;;;;5094623;28;20031;-59
2021/08/20 00:16:46;;;;;;;16.48;13.85;;;18.50;97.20;;;;;;5094174;28;20059;-57
2021/08/20 00:19:12;;;;;;;24.33;14.05;;;18.50;97.10;;;;;;5073648;28;20065;-58
2021/08/20 00:21:38;;;;;;;19.48;14.52;;;18.40;97.30;;;;;;5056269;28;20651;-57
2021/08/20 00:24:05;;;;;;;15.20;13.60;;;18.20;97.60;;;;;;5057087;28;20079;-59
2021/08/20 00:26:31;;;;;;;18.15;14.52;;;18.10;97.90;;;;;;5074578;28;20036;-58
2021/08/20 00:28:56;;;;;;;16.35;13.90;;;18.00;98.10;;;;;;5074410;28;20510;-56
2021/08/20 00:31:23;;;;;;;16.13;13.40;;;17.90;98.10;;;;;;5065731;28;20518;-57
2021/08/20 00:33:48;;;;;;;16.83;13.48;;;17.90;98.30;;;;;;5074586;28;20036;-57
2021/08/20 00:36:14;;;;;;;15.95;13.20;;;17.90;98.10;;;;;;5074613;28;20040;-55
2021/08/20 00:38:40;;;;;;;16.55;14.45;;;17.90;98.20;;;;;;5074530;28;20426;-57
2021/08/20 00:41:10;;;;;;;16.40;14.52;;;17.90;98.30;;;;;;5056420;28;20181;-55
2021/08/20 00:43:36;;;;;;;16.75;13.43;;;17.90;98.40;;;;;;5074938;28;20029;-59
2021/08/20 00:46:02;;;;;;;15.55;13.77;;;17.90;98.30;;;;;;5056645;28;20037;-56
2021/08/20 00:48:28;;;;;;;16.83;13.68;;;17.90;98.40;;;;;;5074022;28;20035;-57
2021/08/20 00:51:17;;;;;;;17.55;13.18;;;17.90;98.40;;;;;;5074499;28;20438;-59
2021/08/20 00:53:43;;;;;;;15.27;13.68;;;18.00;98.30;;;;;;5092777;28;20036;-57
2021/08/20 00:56:09;;;;;;;16.45;14.38;;;17.80;98.30;;;;;;5094476;28;20032;-56
2021/08/20 00:58:35;;;;;;;14.25;12.68;;;17.90;98.40;;;;;;5094372;28;20032;-53
2021/08/20 01:01:02;;;;;;;14.68;12.38;;;17.90;98.40;;;;;;5093583;28;20222;-55
2021/08/20 01:03:31;;;;;;;17.23;13.48;;;17.90;98.40;;;;;;5094305;28;20043;-54
2021/08/20 01:05:58;;;;;;;17.23;13.70;;;18.00;98.20;;;;;;5076379;28;20085;-52
2021/08/20 01:08:25;;;;;;;16.60;13.38;;;17.90;98.40;;;;;;5093989;28;20479;-57
2021/08/20 01:10:51;;;;;;;16.27;12.95;;;17.80;98.60;;;;;;5094105;28;20032;-57
2021/08/20 01:13:18;;;;;;;19.45;14.48;;;17.90;98.50;;;;;;5094395;28;20020;-54
2021/08/20 01:15:44;;;;;;;18.83;14.25;;;17.80;98.50;;;;;;5093954;28;20043;-57
2021/08/20 01:18:11;;;;;;;19.02;14.15;;;17.80;98.50;;;;;;5093810;28;20035;-57
2021/08/20 01:20:36;;;;;;;16.73;13.93;;;17.90;98.60;;;;;;5094135;28;20024;-57
2021/08/20 01:23:06;;;;;;;17.75;13.98;;;17.80;98.60;;;;;;5075649;28;20066;-55
2021/08/20 01:25:34;;;;;;;15.55;13.82;;;17.80;98.60;;;;;;5093491;28;20063;-56
2021/08/20 01:28:07;;;;;;;16.30;14.35;;;17.90;98.50;;;;;;5093695;28;20031;-57
2021/08/20 01:30:33;;;;;;;17.40;14.35;;;17.90;98.40;;;;;;5087993;28;20158;-57
2021/08/20 01:32:59;;;;;;;16.50;12.85;;;17.80;98.40;;;;;;5073179;28;20653;-57
2021/08/20 01:35:24;;;;;;;15.82;13.18;;;17.90;98.50;;;;;;5073053;28;20069;-57
2021/08/20 01:37:50;;;;;;;14.80;12.80;;;18.00;98.40;;;;;;5073068;28;20031;-58
2021/08/20 01:40:16;;;;;;;16.15;12.70;;;18.00;98.30;;;;;;5073326;28;20085;-56
2021/08/20 01:42:41;;;;;;;14.98;11.88;;;18.00;98.20;;;;;;5073322;28;20353;-57
2021/08/20 01:45:07;;;;;;;13.98;12.40;;;18.10;98.20;;;;;;5072467;28;20033;-56
2021/08/20 01:47:33;;;;;;;14.27;12.65;;;18.10;98.10;;;;;;5072566;28;20086;-57
2021/08/20 01:49:58;;;;;;;13.85;12.35;;;18.00;98.20;;;;;;5054344;28;20577;-56
2021/08/20 01:52:24;;;;;;;16.02;12.55;;;18.00;98.30;;;;;;5072458;28;20448;-56
2021/08/20 01:54:49;;;;;;;14.55;13.05;;;18.00;98.30;;;;;;5072924;28;20036;-55
2021/08/20 01:57:15;;;;;;;16.08;13.00;;;18.10;98.30;;;;;;5072979;28;20036;-53
2021/08/20 01:59:42;;;;;;;13.65;12.25;;;18.20;98.20;;;;;;5072842;28;20028;-56
2021/08/20 02:02:07;;;;;;;13.63;11.82;;;18.20;98.00;;;;;;5072916;28;20103;-54
2021/08/20 02:04:33;;;;;;;14.38;12.88;;;18.20;98.10;;;;;;5055060;28;20645;-57
2021/08/20 02:06:59;;;;;;;14.43;12.82;;;18.00;98.30;;;;;;5071874;28;20365;-59
2021/08/20 02:09:24;;;;;;;15.50;13.68;;;18.10;98.30;;;;;;5072617;28;20033;-58
2021/08/20 02:11:50;;;;;;;15.88;13.20;;;18.10;98.30;;;;;;5079242;28;20032;-59
2021/08/20 02:14:17;;;;;;;15.38;13.23;;;18.00;98.50;;;;;;5092331;28;20050;-58
2021/08/20 02:16:43;;;;;;;14.50;12.55;;;17.90;98.60;;;;;;5092654;28;20077;-57
2021/08/20 02:19:09;;;;;;;16.88;13.20;;;18.00;98.50;;;;;;5074377;28;20040;-58
2021/08/20 02:21:34;;;;;;;14.20;12.38;;;18.00;98.50;;;;;;5092577;28;20177;-59
2021/08/20 02:24:00;;;;;;;14.60;13.13;;;18.10;98.40;;;;;;5093186;28;20476;-56
2021/08/20 02:26:25;;;;;;;13.90;12.40;;;18.00;98.50;;;;;;5092211;28;20043;-55
2021/08/20 02:28:51;;;;;;;16.05;13.38;;;18.10;98.70;;;;;;5092756;28;20089;-57
2021/08/20 02:31:16;;;;;;;14.70;13.30;;;18.10;98.50;;;;;;5080459;28;20106;-57
2021/08/20 02:33:45;;;;;;;14.35;12.70;;;18.20;98.30;;;;;;5072248;28;20059;-58
2021/08/20 02:36:12;;;;;;;14.27;12.68;;;18.10;98.60;;;;;;5054069;28;20131;-57
2021/08/20 02:38:39;;;;;;;14.82;13.32;;;18.00;98.70;;;;;;5054147;28;20032;-57
2021/08/20 02:41:04;;;;;;;14.85;12.70;;;17.90;98.90;;;;;;5071993;28;20048;-57
2021/08/20 02:43:30;;;;;;;14.10;12.55;;;18.00;98.90;;;;;;5071653;28;20037;-57
2021/08/20 02:45:56;;;;;;;14.75;12.38;;;18.00;98.80;;;;;;5070858;28;20044;-57
2021/08/20 02:48:23;;;;;;;15.70;12.43;;;18.00;98.80;;;;;;5071963;28;20048;-57
2021/08/20 02:50:48;;;;;;;13.43;12.00;;;18.00;98.80;;;;;;5072329;28;20044;-58
2021/08/20 02:53:14;;;;;;;15.73;13.07;;;18.00;98.90;;;;;;5072309;28;20071;-58
2021/08/20 02:55:40;;;;;;;14.88;12.18;;;18.00;98.90;;;;;;5071579;28;20038;-57
2021/08/20 02:58:06;;;;;;;15.05;12.30;;;18.00;99.00;;;;;;5072252;28;20033;-57
2021/08/20 03:00:32;;;;;;;14.27;12.77;;;18.00;98.90;;;;;;5071660;28;20032;-57
2021/08/20 03:02:57;;;;;;;14.93;12.15;;;18.00;98.90;;;;;;5054684;28;20064;-56
2021/08/20 03:05:23;;;;;;;14.32;12.45;;;18.00;99.00;;;;;;5054550;28;20048;-56
2021/08/20 03:07:49;;;;;;;17.05;13.07;;;18.00;98.90;;;;;;5072178;28;20582;-57
2021/08/20 03:10:14;;;;;;;13.32;11.93;;;18.00;99.00;;;;;;5072150;28;20028;-56
2021/08/20 03:12:40;;;;;;;14.52;12.93;;;18.00;99.10;;;;;;5064816;28;20039;-55
2021/08/20 03:15:06;;;;;;;15.52;13.55;;;17.90;99.20;;;;;;5071960;28;20389;-54
2021/08/20 03:17:32;;;;;;;16.67;14.05;;;17.80;99.40;;;;;;5071675;28;20063;-56
2021/08/20 03:19:58;;;;;;;15.40;12.85;;;17.80;99.40;;;;;;5081549;28;20487;-56
2021/08/20 03:22:24;;;;;;;13.75;11.90;;;17.80;99.30;;;;;;5091878;28;20036;-57
2021/08/20 03:24:49;;;;;;;14.10;12.60;;;17.90;99.20;;;;;;5094316;28;20039;-55
2021/08/20 03:27:15;;;;;;;13.32;11.90;;;17.90;99.20;;;;;;5095837;28;20109;-57
2021/08/20 03:29:40;;;;;;;14.75;12.48;;;17.90;99.20;;;;;;5095815;28;20043;-58
2021/08/20 03:32:07;;;;;;;13.02;11.73;;;17.90;99.20;;;;;;5077068;28;20548;-56
2021/08/20 03:34:32;;;;;;;13.88;12.23;;;17.90;99.20;;;;;;5075773;28;20404;-57
2021/08/20 03:36:58;;;;;;;14.52;12.93;;;18.00;99.20;;;;;;5075082;28;20036;-59
2021/08/20 03:39:23;;;;;;;14.27;12.77;;;18.00;99.00;;;;;;5075679;28;20478;-57
2021/08/20 03:41:49;;;;;;;15.73;13.13;;;17.90;99.20;;;;;;5075256;28;20442;-56
2021/08/20 03:44:15;;;;;;;14.55;13.05;;;17.90;99.30;;;;;;5075548;28;20040;-58
2021/08/20 03:46:40;;;;;;;16.15;13.18;;;17.80;99.50;;;;;;5075252;28;20032;-59
2021/08/20 03:49:06;;;;;;;17.20;13.05;;;17.80;99.30;;;;;;5075621;28;20033;-56
2021/08/20 03:51:32;;;;;;;17.48;13.95;;;17.70;99.70;;;;;;5074638;28;20428;-57
2021/08/20 03:53:58;;;;;;;16.73;13.15;;;17.70;99.70;;;;;;5075151;28;20392;-58
2021/08/20 03:56:23;;;;;;;16.05;13.10;;;17.70;99.70;;;;;;5074794;28;20492;-58
2021/08/20 03:58:49;;;;;;;15.43;13.43;;;17.70;99.70;;;;;;5056948;28;20036;-57
2021/08/20 04:01:14;;;;;;;16.15;13.57;;;17.70;99.80;;;;;;5075155;28;20538;-57
2021/08/20 04:03:40;;;;;;;18.13;14.50;;;17.70;99.80;;;;;;5074737;28;20059;-58
2021/08/20 04:06:10;;;;;;;17.77;14.88;;;17.60;99.80;;;;;;5074711;28;20087;-58
2021/08/20 04:08:36;;;;;;;16.73;14.13;;;17.60;99.90;;;;;;5074924;28;20055;-58
2021/08/20 04:11:02;;;;;;;18.77;14.77;;;17.50;99.90;;;;;;5075341;28;20029;-58
2021/08/20 04:13:27;;;;;;;16.98;14.02;;;17.50;99.90;;;;;;5095451;28;20479;-56
2021/08/20 04:15:53;;;;;;;17.88;15.55;;;17.50;99.90;;;;;;5095131;28;20032;-57
2021/08/20 04:18:18;;;;;;;17.50;14.32;;;17.50;99.90;;;;;;5095017;28;20059;-57
2021/08/20 04:20:44;;;;;;;17.35;15.15;;;17.50;99.90;;;;;;5095514;28;20044;-57
2021/08/20 04:23:11;;;;;;;20.63;15.55;;;17.60;99.90;;;;;;5094904;28;20384;-58
2021/08/20 04:25:36;;;;;;;18.73;14.23;;;17.60;99.90;;;;;;5095310;28;20048;-55
2021/08/20 04:28:02;;;;;;;17.05;14.60;;;17.60;99.90;;;;;;5094640;28;20040;-54
2021/08/20 04:30:29;;;;;;;17.88;14.43;;;17.50;99.90;;;;;;5089572;28;20036;-55
2021/08/20 04:32:58;;;;;;;15.30;13.68;;;17.50;99.90;;;;;;5074249;28;20051;-55
2021/08/20 04:35:25;;;;;;;18.08;15.05;;;17.60;99.90;;;;;;5055327;28;20484;-57
2021/08/20 04:37:51;;;;;;;17.70;14.27;;;17.50;99.90;;;;;;5074178;28;20032;-56
2021/08/20 04:40:16;;;;;;;16.10;13.80;;;17.50;99.90;;;;;;5074637;28;20035;-57
2021/08/20 04:42:42;;;;;;;18.27;15.02;;;17.50;99.90;;;;;;5074106;28;20034;-59
2021/08/20 04:45:08;;;;;;;17.73;15.32;;;17.60;99.90;;;;;;5056212;28;20537;-60
2021/08/20 04:47:33;;;;;;;17.92;15.65;;;17.60;99.90;;;;;;5074162;28;20075;-58
2021/08/20 04:49:59;;;;;;;17.27;14.38;;;17.50;99.90;;;;;;5073714;28;20068;-58
2021/08/20 04:52:25;;;;;;;20.92;16.00;;;17.50;99.90;;;;;;5074614;28;20432;-57
2021/08/20 04:54:51;;;;;;;16.00;14.13;;;17.50;99.90;;;;;;5074712;28;20484;-58
2021/08/20 04:57:16;;;;;;;18.08;14.57;;;17.50;99.90;;;;;;5074547;28;20442;-56
2021/08/20 04:59:42;;;;;;;20.83;16.27;;;17.60;99.90;;;;;;5074164;28;20128;-57
2021/08/20 05:02:08;;;;;;;16.70;14.77;;;17.50;99.90;;;;;;5073841;28;20048;-58
2021/08/20 05:04:35;;;;;;;18.55;15.10;;;17.50;99.90;;;;;;5073942;28;20032;-57
2021/08/20 05:07:03;;;;;;;18.80;15.20;;;17.60;99.90;;;;;;5073631;28;20078;-57
2021/08/20 05:09:29;;;;;;;18.35;14.70;;;17.60;99.90;;;;;;5073456;28;20036;-56
2021/08/20 05:11:55;;;;;;;20.02;14.88;;;17.50;99.90;;;;;;5081822;28;20123;-59
2021/08/20 05:14:20;;;;;;;20.58;15.25;;;17.50;99.90;;;;;;5094221;28;20032;-57
2021/08/20 05:16:48;;;;;;;20.80;15.40;;;17.40;99.90;;;;;;5085212;28;20043;-57
2021/08/20 05:19:14;;;;;;;18.08;13.95;;;17.40;99.90;;;;;;5091195;28;20483;-56
2021/08/20 05:21:40;;;;;;;18.23;14.43;;;17.40;99.90;;;;;;5080665;28;20755;-57
2021/08/20 05:24:06;;;;;;;18.30;14.35;;;17.40;99.90;;;;;;5082557;28;20040;-57
2021/08/20 05:26:31;;;;;;;19.65;14.52;;;17.40;99.90;;;;;;5082378;28;20032;-57
2021/08/20 05:28:57;;;;;;;16.67;13.15;;;17.30;99.90;;;;;;5084937;28;20387;-57
2021/08/20 05:31:22;;;;;;;19.00;14.25;;;17.30;99.90;;;;;;5080241;28;20186;-57
2021/08/20 05:33:48;;;;;;;18.30;13.77;;;17.40;99.90;;;;;;5055353;28;20473;-58
2021/08/20 05:36:13;;;;;;;14.93;13.32;;;17.50;99.90;;;;;;5071377;28;20032;-57
2021/08/20 05:38:39;;;;;;;15.52;13.43;;;17.50;99.90;;;;;;5093843;28;20051;-57
2021/08/20 05:41:05;;;;;;;17.48;12.32;;;17.50;99.90;;;;;;5093542;28;20036;-57
2021/08/20 05:43:32;;;;;;;13.75;12.32;;;17.60;99.90;;;;;;5092841;28;20032;-58
2021/08/20 05:45:58;;;;;;;17.48;12.52;;;17.60;99.90;;;;;;5084509;28;20028;-56
2021/08/20 05:48:24;;;;;;;14.85;12.13;;;17.60;99.90;;;;;;5093061;28;20499;-55
2021/08/20 05:50:49;;;;;;;14.63;12.48;;;17.60;99.90;;;;;;5092937;28;20039;-55
2021/08/20 05:53:15;;;;;;;13.07;11.48;;;17.60;99.90;;;;;;5087634;28;20040;-55
2021/08/20 05:55:40;;;;;;;14.25;12.27;;;17.70;99.80;;;;;;5092260;28;20480;-56
2021/08/20 05:58:06;;;;;;;12.88;11.38;;;17.70;99.90;;;;;;5093046;28;20040;-56
2021/08/20 06:00:33;;;;;;;14.93;11.88;;;17.70;99.90;;;;;;5091782;28;20031;-56
2021/08/20 06:02:58;;;;;;;14.25;12.05;;;17.70;99.90;;;;;;5079639;28;20399;-54
2021/08/20 06:05:24;;;;;;;13.57;11.43;;;17.80;99.70;;;;;;5081859;28;20036;-55
2021/08/20 06:07:49;;;;;;;13.45;11.95;;;17.80;99.70;;;;;;5083532;28;20035;-57
2021/08/20 06:10:16;;;;;;;14.18;11.57;;;17.90;99.70;;;;;;5082747;28;20048;-57
2021/08/20 06:12:42;;;;;;;13.65;11.70;;;17.80;99.90;;;;;;5083275;28;20067;-58
2021/08/20 06:15:08;;;;;;;13.20;10.52;;;17.80;99.90;;;;;;5073414;28;20052;-57
2021/08/20 06:17:34;;;;;;;13.68;12.27;;;17.90;99.90;;;;;;5073840;28;20082;-58
2021/08/20 06:19:59;;;;;;;13.25;11.07;;;18.00;99.60;;;;;;5074050;28;20033;-59
2021/08/20 06:22:25;;;;;;;12.73;10.98;;;18.00;99.60;;;;;;5085217;28;20445;-59
2021/08/20 06:24:50;;;;;;;17.27;10.57;;;18.10;99.60;;;;;;5092559;28;20067;-57
2021/08/20 06:27:16;;;;;;;14.15;11.65;;;18.20;99.30;;;;;;5062150;28;20043;-58
2021/08/20 06:29:42;;;;;;;12.75;11.38;;;18.20;99.30;;;;;;5072474;28;20488;-58
2021/08/20 06:32:08;;;;;;;13.13;10.93;;;18.30;99.20;;;;;;5061485;28;20044;-59
2021/08/20 06:34:33;;;;;;;14.75;10.95;;;18.30;99.30;;;;;;5072936;28;20472;-57
2021/08/20 06:36:59;;;;;;;12.23;10.30;;;18.40;99.10;;;;;;5072261;28;20045;-61
2021/08/20 06:39:26;;;;;;;14.70;10.90;;;18.40;99.10;;;;;;5073120;28;20123;-59
2021/08/20 06:41:51;;;;;;;11.85;10.57;;;18.50;99.00;;;;;;5055375;28;20036;-58
2021/08/20 06:44:17;;;;;;;12.77;11.40;;;18.40;99.00;;;;;;5072166;28;20783;-57
2021/08/20 06:46:43;;;;;;;14.10;10.88;;;18.40;99.00;;;;;;5072360;28;20047;-59
2021/08/20 06:49:09;;;;;;;12.00;10.52;;;18.50;98.80;;;;;;5073543;28;20478;-58
2021/08/20 06:51:36;;;;;;;12.05;10.00;;;18.50;98.60;;;;;;5072428;28;20028;-59
2021/08/20 06:54:03;;;;;;;12.98;10.15;;;18.50;98.20;;;;;;5055617;28;20162;-57
2021/08/20 06:56:29;;;;;;;11.82;9.90;;;18.50;98.10;;;;;;5072069;28;20037;-58
2021/08/20 06:58:57;;;;;;;10.80;9.10;;;18.50;98.00;;;;;;5074717;28;20037;-58
2021/08/20 07:01:24;;;;;;;10.95;9.57;;;18.60;97.80;;;;;;5079551;28;20545;-58
2021/08/20 07:07:11;;;;;;;10.43;9.32;;;18.80;97.60;;;;;;5061352;28;20044;-58
2021/08/20 07:09:37;;;;;;;12.13;9.07;;;19.00;97.30;;;;;;5078872;28;20044;-60
2021/08/20 07:12:02;;;;;;;11.00;9.70;;;19.00;97.20;;;;;;5067739;28;20082;-57
2021/08/20 07:14:48;;;;;;;11.50;9.85;;;19.10;97.10;;;;;;5079067;28;20105;-61
2021/08/20 07:17:14;;;;;;;13.63;10.60;;;19.20;96.90;;;;;;5078278;28;20040;-57
2021/08/20 07:19:39;;;;;;;11.60;10.40;;;19.30;96.30;;;;;;5085559;28;20391;-59
2021/08/20 07:22:05;;;;;;;12.50;10.65;;;19.30;96.10;;;;;;5099071;28;20412;-59
2021/08/20 07:24:30;;;;;;;15.15;10.15;;;19.20;95.60;;;;;;5081076;28;20039;-58
2021/08/20 07:26:56;;;;;;;17.52;10.93;;;18.90;96.20;;;;;;5080895;28;20036;-58
2021/08/20 07:29:21;;;;;;;12.18;9.95;;;18.70;96.90;;;;;;5099057;28;20476;-58
2021/08/20 07:31:47;;;;;;;14.20;9.98;;;18.70;96.70;;;;;;5082338;28;20499;-61
2021/08/20 07:34:13;;;;;;;12.30;11.05;;;18.80;96.20;;;;;;5078523;28;20411;-58
2021/08/20 07:36:38;;;;;;;13.80;10.35;;;18.90;95.90;;;;;;5078724;28;20400;-58
2021/08/20 07:39:04;;;;;;;11.93;9.73;;;18.70;96.20;;;;;;5078718;28;20032;-56
2021/08/20 07:41:29;;;;;;;10.27;9.23;;;18.70;96.50;;;;;;5078712;28;20047;-58
2021/08/20 07:43:55;;;;;;;11.88;10.20;;;18.90;96.40;;;;;;5078587;28;20492;-57
2021/08/20 07:46:20;;;;;;;12.70;10.73;;;18.90;96.10;;;;;;5044054;28;20028;-60
2021/08/20 07:48:46;;;;;;;11.27;9.93;;;18.80;96.30;;;;;;5079085;28;20040;-59
2021/08/20 07:51:11;;;;;;;12.32;10.38;;;18.80;96.30;;;;;;5078383;28;20517;-59
2021/08/20 07:53:37;;;;;;;11.18;10.10;;;18.80;96.40;;;;;;5078443;28;20032;-57
2021/08/20 07:56:03;;;;;;;14.35;11.48;;;18.70;96.40;;;;;;5078020;28;20036;-57
2021/08/20 07:58:28;;;;;;;12.48;10.95;;;18.80;96.50;;;;;;5060550;28;20090;-58
2021/08/20 08:00:54;;;;;;;16.30;11.30;;;18.70;96.30;;;;;;5078398;28;20037;-58
2021/08/20 08:03:20;;;;;;;11.10;9.98;;;18.50;96.70;;;;;;5078690;28;20051;-57
2021/08/20 08:05:46;;;;;;;12.25;10.75;;;18.50;96.60;;;;;;5078277;28;20510;-58
2021/08/20 08:08:11;;;;;;;11.65;10.45;;;18.60;96.50;;;;;;5078083;28;20107;-56
2021/08/20 08:10:37;;;;;;;15.63;10.43;;;18.60;96.10;;;;;;5071078;28;20046;-59
2021/08/20 08:13:02;;;;;;;12.25;10.15;;;18.70;96.20;;;;;;5086139;28;20103;-55
2021/08/20 08:15:31;;;;;;;11.57;10.38;;;18.80;95.80;;;;;;5076372;28;20029;-60
2021/08/20 08:17:57;;;;;;;13.27;10.43;;;18.70;95.90;;;;;;5090392;28;20575;-58
2021/08/20 08:20:23;;;;;;;12.40;10.18;;;18.80;96.10;;;;;;5087647;28;20047;-58
2021/08/20 08:22:48;;;;;;;12.18;9.73;;;18.90;95.90;;;;;;5094922;28;20502;-58
2021/08/20 08:25:16;;;;;;;15.82;11.13;;;18.70;96.30;;;;;;5076644;28;20036;-58
2021/08/20 08:27:47;;;;;;;13.60;9.80;;;18.90;95.60;;;;;;5079918;28;20020;-59
2021/08/20 08:30:13;;;;;;;10.77;9.68;;;19.20;95.40;;;;;;5074845;28;20036;-59
2021/08/20 08:32:38;;;;;;;11.43;9.98;;;19.30;95.30;;;;;;5074222;28;20134;-59
2021/08/20 08:35:05;;;;;;;10.30;9.30;;;19.40;95.20;;;;;;5093908;28;20028;-58
2021/08/20 08:37:30;;;;;;;10.95;9.75;;;19.50;95.30;;;;;;5094284;28;20032;-58
2021/08/20 08:39:56;;;;;;;11.00;9.13;;;19.60;95.00;;;;;;5094323;28;20036;-58
2021/08/20 08:42:21;;;;;;;13.15;10.77;;;19.60;94.90;;;;;;5094368;28;20085;-60
2021/08/20 08:44:47;;;;;;;13.65;10.35;;;19.70;94.80;;;;;;5094270;28;20078;-59
2021/08/20 08:47:15;;;;;;;12.93;10.63;;;19.70;94.20;;;;;;5094273;28;20093;-58
2021/08/20 08:49:43;;;;;;;12.15;10.85;;;19.80;93.80;;;;;;5084645;28;20024;-58
2021/08/20 08:52:09;;;;;;;12.30;11.00;;;19.70;93.40;;;;;;5090220;28;20032;-57
2021/08/20 08:54:34;;;;;;;16.17;11.55;;;19.70;93.40;;;;;;5095221;28;20116;-58
2021/08/20 08:57:00;;;;;;;17.33;10.48;;;19.70;93.60;;;;;;5093812;28;20115;-58
2021/08/20 08:59:25;;;;;;;14.30;10.70;;;19.60;92.80;;;;;;5097488;28;20058;-57
2021/08/20 09:01:51;;;;;;;11.77;10.27;;;19.70;92.30;;;;;;5095742;28;20572;-59
2021/08/20 09:04:21;;;;;;;13.07;9.75;;;19.70;92.40;;;;;;5094478;28;20419;-56
2021/08/20 09:06:53;;;;;;;12.68;10.00;;;19.70;92.30;;;;;;5094915;28;20032;-55
2021/08/20 09:09:21;;;;;;;11.95;10.48;;;19.70;92.50;;;;;;5095275;28;20031;-57
2021/08/20 09:12:09;;;;;;;12.95;11.52;;;19.40;93.00;;;;;;5094472;28;20040;-59
2021/08/20 09:14:36;;;;;;;13.27;10.27;;;19.40;92.80;;;;;;5095160;28;20499;-58
2021/08/20 09:17:03;;;;;;;13.52;10.68;;;19.30;93.30;;;;;;5093882;28;20499;-58
2021/08/20 09:19:29;;;;;;;11.70;9.90;;;19.50;92.90;;;;;;5094570;28;20088;-59
2021/08/20 09:21:58;;;;;;;11.98;10.35;;;19.90;92.50;;;;;;5094376;28;20032;-56
2021/08/20 09:24:36;;;;;;;11.85;10.13;;;19.80;91.60;;;;;;5093791;28;20035;-57
2021/08/20 09:27:24;;;;;;;12.60;9.40;;;19.90;91.90;;;;;;5094458;28;20036;-57
2021/08/20 09:30:14;;;;;;;13.48;10.30;;;19.90;91.70;;;;;;5093966;28;20068;-56
2021/08/20 09:32:45;;;;;;;13.38;9.20;;;19.90;91.70;;;;;;5073290;28;20032;-58
2021/08/20 09:35:12;;;;;;;11.07;9.48;;;19.90;91.80;;;;;;5073029;28;20024;-57
2021/08/20 09:37:38;;;;;;;10.35;9.10;;;20.20;90.70;;;;;;5073233;28;20032;-58
2021/08/20 09:40:08;;;;;;;11.63;9.68;;;20.30;90.60;;;;;;5073433;28;20033;-58
2021/08/20 09:42:34;;;;;;;12.50;10.80;;;20.50;90.30;;;;;;5073068;28;20394;-57
2021/08/20 09:45:20;;;;;;;10.93;9.80;;;20.50;90.40;;;;;;5073558;28;20025;-57
2021/08/20 09:47:49;;;;;;;12.85;11.55;;;20.40;91.00;;;;;;5072817;28;20048;-58
2021/08/20 09:50:15;;;;;;;11.00;9.85;;;20.30;90.40;;;;;;5093419;28;20079;-58
2021/08/20 09:52:41;;;;;;;11.27;10.10;;;20.20;90.90;;;;;;5074904;28;20020;-60
2021/08/20 09:55:07;;;;;;;11.93;10.63;;;20.20;91.00;;;;;;5092990;28;20040;-58
2021/08/20 09:57:36;;;;;;;13.85;10.82;;;20.10;91.00;;;;;;5092703;28;20032;-60
2021/08/20 10:00:04;;;;;;;14.98;10.98;;;19.90;91.10;;;;;;5092383;28;20032;-59
2021/08/20 10:02:30;;;;;;;11.32;10.00;;;19.90;91.20;;;;;;5093214;28;20406;-58
2021/08/20 10:04:58;;;;;;;11.10;10.00;;;20.00;91.10;;;;;;5093521;28;20028;-58
2021/08/20 10:07:26;;;;;;;12.43;11.13;;;20.20;90.50;;;;;;5075140;28;20042;-58
2021/08/20 10:09:52;;;;;;;10.45;9.13;;;20.10;90.20;;;;;;5093977;28;20047;-57
2021/08/20 10:12:20;;;;;;;9.95;8.95;;;20.40;90.20;;;;;;5092743;28;20502;-56
2021/08/20 10:14:46;;;;;;;11.32;10.07;;;20.70;89.80;;;;;;5093140;28;20070;-57
2021/08/20 10:17:14;;;;;;;11.70;10.15;;;21.00;87.70;;;;;;5093155;28;20035;-56
2021/08/20 10:19:41;;;;;;;11.77;10.40;;;21.00;87.80;;;;;;5093290;28;20026;-58
2021/08/20 10:22:08;;;;;;;11.73;9.77;;;21.10;85.80;;;;;;5093265;28;20024;-58
2021/08/20 10:24:35;;;;;;;11.25;10.15;;;21.10;86.20;;;;;;5093514;28;20031;-59
2021/08/20 10:27:06;;;;;;;10.57;9.50;;;21.00;86.10;;;;;;5093184;28;20036;-58
2021/08/20 10:29:37;;;;;;;11.23;9.57;;;21.00;86.30;;;;;;5093096;28;20048;-59
2021/08/20 10:32:06;;;;;;;11.27;9.98;;;21.10;87.00;;;;;;5056923;28;20511;-59
2021/08/20 10:34:39;;;;;;;10.20;9.18;;;21.20;84.70;;;;;;5071927;28;20110;-58
2021/08/20 10:37:08;;;;;;;9.98;9.00;;;21.00;86.50;;;;;;5073067;28;20043;-58
2021/08/20 10:39:34;;;;;;;9.95;8.90;;;21.00;87.60;;;;;;5073279;28;20111;-57
2021/08/20 10:42:08;;;;;;;11.43;9.20;;;21.10;85.80;;;;;;5054172;28;20066;-58
2021/08/20 10:44:36;;;;;;;13.00;9.40;;;21.30;85.00;;;;;;5072634;28;20071;-59
2021/08/20 10:47:02;;;;;;;11.65;8.45;;;21.10;85.00;;;;;;5071930;28;20029;-58
2021/08/20 10:49:35;;;;;;;11.13;9.93;;;21.20;85.00;;;;;;5072248;28;20115;-59
2021/08/20 10:52:02;;;;;;;11.98;8.90;;;21.20;84.20;;;;;;5072258;28;20054;-59
2021/08/20 10:54:30;;;;;;;11.45;8.70;;;21.20;85.10;;;;;;5073143;28;20036;-57
2021/08/20 10:57:06;;;;;;;11.07;8.95;;;21.40;85.10;;;;;;5054776;28;20028;-60
2021/08/20 10:59:43;;;;;;;11.18;8.15;;;21.40;82.60;;;;;;5072727;28;20020;-56
2021/08/20 11:02:18;;;;;;;10.95;8.40;;;21.50;83.00;;;;;;5054485;28;20021;-58
2021/08/20 11:05:09;;;;;;;14.43;9.18;;;21.60;82.60;;;;;;5071961;28;20036;-54
2021/08/20 11:07:34;;;;;;;9.88;8.88;;;21.70;82.70;;;;;;5071631;28;20028;-57
2021/08/20 11:10:20;;;;;;;11.07;8.73;;;21.50;82.20;;;;;;5079705;28;20032;-57
2021/08/20 11:12:53;;;;;;;12.13;9.13;;;21.40;83.00;;;;;;5091884;28;20032;-57
2021/08/20 11:15:21;;;;;;;10.35;9.35;;;21.40;83.50;;;;;;5092087;28;20130;-57
2021/08/20 11:18:04;;;;;;;11.55;9.13;;;21.30;82.70;;;;;;5092433;28;20032;-56
2021/08/20 11:20:41;;;;;;;7.93;7.07;;;21.30;83.60;;;;;;5091694;28;20533;-57
2021/08/20 11:23:13;;;;;;;8.82;7.80;;;21.20;84.20;;;;;;5091874;28;20349;-55
2021/08/20 11:25:41;;;;;;;8.25;7.45;;;21.50;83.50;;;;;;5092039;28;20039;-54
2021/08/20 11:28:08;;;;;;;9.65;7.95;;;21.60;84.10;;;;;;5091327;28;20484;-57
2021/08/20 11:30:37;;;;;;;9.80;8.60;;;21.60;82.40;;;;;;5085616;28;20125;-55
2021/08/20 11:33:15;;;;;;;12.30;8.32;;;21.50;82.40;;;;;;5054228;28;20064;-57
2021/08/20 11:35:42;;;;;;;8.95;7.65;;;21.50;82.90;;;;;;5053528;28;20021;-54
2021/08/20 11:38:12;;;;;;;9.60;8.50;;;21.50;82.70;;;;;;5071686;28;20032;-57
2021/08/20 11:40:51;;;;;;;10.43;7.88;;;21.30;83.10;;;;;;5054072;28;20094;-58
2021/08/20 11:43:17;;;;;;;8.98;7.95;;;21.50;83.40;;;;;;5072161;28;20028;-56
2021/08/20 11:45:43;;;;;;;8.43;7.63;;;21.70;83.30;;;;;;5074191;28;20532;-59
2021/08/20 11:48:09;;;;;;;8.43;6.90;;;22.00;82.30;;;;;;5074989;28;20044;-57
2021/08/20 11:50:35;;;;;;;9.23;6.95;;;22.20;82.20;;;;;;5075413;28;20085;-55
2021/08/20 11:53:01;;;;;;;11.50;6.53;;;22.20;78.50;;;;;;5086114;28;20036;-60
2021/08/20 11:55:27;;;;;;;8.07;6.53;;;21.90;79.30;;;;;;5091662;28;20165;-58
2021/08/20 11:57:53;;;;;;;8.40;6.32;;;21.90;79.60;;;;;;5090954;28;20059;-58
2021/08/20 12:00:19;;;;;;;8.32;6.15;;;21.70;78.50;;;;;;5095838;28;20438;-59
2021/08/20 12:02:45;;;;;;;7.55;6.07;;;21.70;78.40;;;;;;5090191;28;20089;-57
2021/08/20 12:05:12;;;;;;;7.03;5.97;;;21.50;78.70;;;;;;5081782;28;20395;-56
2021/08/20 12:07:38;;;;;;;7.05;6.00;;;21.60;78.40;;;;;;5086179;28;20068;-58
2021/08/20 12:10:04;;;;;;;9.00;6.22;;;21.70;78.90;;;;;;5094902;28;20040;-58
2021/08/20 12:12:33;;;;;;;7.60;6.53;;;21.70;79.00;;;;;;5085476;28;20059;-58
2021/08/20 12:14:59;;;;;;;8.93;6.40;;;21.70;79.90;;;;;;5086102;28;20404;-56
2021/08/20 12:17:28;;;;;;;7.38;6.68;;;21.60;79.70;;;;;;5092228;28;20039;-59
2021/08/20 12:19:56;;;;;;;7.32;6.60;;;21.70;80.30;;;;;;5065442;28;20039;-58
2021/08/20 12:22:32;;;;;;;11.15;7.70;;;22.00;79.20;;;;;;5061868;28;20115;-57
2021/08/20 12:24:57;;;;;;;8.20;7.15;;;22.10;78.70;;;;;;5080891;28;20396;-59
2021/08/20 12:27:25;;;;;;;8.00;7.13;;;22.00;78.80;;;;;;5074597;28;20029;-59
2021/08/20 12:29:57;;;;;;;7.80;7.00;;;21.90;79.30;;;;;;5056453;28;20040;-59
2021/08/20 12:32:24;;;;;;;10.13;7.20;;;21.90;79.90;;;;;;5056279;28;20044;-60
2021/08/20 12:34:58;;;;;;;7.65;6.90;;;22.00;79.90;;;;;;5074461;28;20028;-60